createdAt,value
2024-03-23T00:00:18.274Z,1150.00
2024-03-23T00:01:18.320Z,1148.00
2024-03-23T00:02:18.390Z,1143.00
2024-03-23T00:03:18.524Z,1134.00
2024-03-23T00:04:18.561Z,1136.00
2024-03-23T00:05:18.604Z,1132.00
2024-03-23T00:06:18.722Z,1124.00
2024-03-23T00:07:18.736Z,1131.00
2024-03-23T00:55:57.210Z,1141.00
2024-03-23T00:56:19.091Z,1144.00
2024-03-23T00:57:19.073Z,1311.00
2024-03-23T00:58:19.068Z,1564.00
2024-03-23T00:59:19.075Z,1843.00
2024-03-23T01:00:19.081Z,2108.00
2024-03-23T01:01:19.073Z,2220.00
2024-03-23T01:02:19.088Z,2040.00
2024-03-23T01:03:19.097Z,1899.00
2024-03-23T01:04:19.097Z,1782.00
2024-03-23T01:05:19.084Z,1693.00
2024-03-23T01:06:19.132Z,1622.00
2024-03-23T01:07:19.084Z,1545.00
2024-03-23T01:08:19.092Z,1494.00
2024-03-23T01:09:19.107Z,1443.00
2024-03-23T01:10:19.108Z,1403.00
2024-03-23T01:11:19.121Z,1358.00
2024-03-23T01:12:19.110Z,1333.00
2024-03-23T01:13:19.100Z,1300.00
2024-03-23T01:14:19.108Z,1279.00
2024-03-23T01:15:19.139Z,1252.00
2024-03-23T01:16:19.212Z,1223.00
2024-03-23T01:17:19.286Z,1213.00
2024-03-23T01:18:19.352Z,1196.00
2024-03-23T01:19:19.443Z,1183.00
2024-03-23T01:20:19.490Z,1157.00
2024-03-23T01:21:19.582Z,1151.00
2024-03-23T01:22:19.639Z,1144.00
2024-03-23T01:23:19.711Z,1131.00
2024-03-23T01:24:19.805Z,1115.00
2024-03-23T01:25:19.862Z,1104.00
2024-03-23T01:26:19.920Z,1104.00
2024-03-23T01:27:20.037Z,1088.00
2024-03-23T01:28:20.073Z,1086.00
2024-03-23T01:29:20.171Z,1071.00
2024-03-23T01:30:20.216Z,1063.00
2024-03-23T01:31:20.296Z,1064.00
2024-03-23T01:32:20.370Z,1053.00
2024-03-23T01:33:20.443Z,1048.00
2024-03-23T01:34:20.503Z,1041.00
2024-03-23T01:35:20.579Z,1043.00
2024-03-23T01:36:20.649Z,1032.00
2024-03-23T01:37:20.719Z,1031.00
2024-03-23T01:38:20.796Z,1024.00
2024-03-23T01:39:20.913Z,1022.00
2024-03-23T01:40:20.925Z,1020.00
2024-03-23T01:41:21.000Z,1011.00
2024-03-23T01:42:21.070Z,1006.00
2024-03-23T01:43:21.139Z,997.00
2024-03-23T01:44:21.199Z,996.00
2024-03-23T01:45:21.303Z,997.00
2024-03-23T01:46:21.353Z,981.00
2024-03-23T01:47:21.430Z,990.00
2024-03-23T01:48:21.507Z,980.00
2024-03-23T01:49:21.556Z,972.00
2024-03-23T01:50:21.624Z,979.00
2024-03-23T01:51:21.710Z,976.00
2024-03-23T01:52:21.761Z,970.00
2024-03-23T01:53:21.832Z,963.00
2024-03-23T01:54:21.914Z,965.00
2024-03-23T01:55:21.979Z,956.00
2024-03-23T01:56:22.045Z,961.00
2024-03-23T01:57:22.137Z,951.00
2024-03-23T01:58:22.176Z,946.00
2024-03-23T01:59:22.262Z,942.00
2024-03-23T02:00:22.331Z,939.00
2024-03-23T02:01:22.379Z,939.00
2024-03-23T02:02:22.456Z,941.00
2024-03-23T02:03:22.541Z,932.00
2024-03-23T02:04:22.596Z,935.00
2024-03-23T02:05:22.675Z,918.00
2024-03-23T02:06:22.773Z,921.00
2024-03-23T02:07:22.859Z,925.00
2024-03-23T02:08:22.891Z,914.00
2024-03-23T02:09:23.011Z,915.00
2024-03-23T02:10:23.035Z,910.00
2024-03-23T02:11:23.105Z,911.00
2024-03-23T02:12:23.217Z,914.00
2024-03-23T02:13:23.255Z,903.00
2024-03-23T02:14:23.326Z,907.00
2024-03-23T02:15:23.422Z,907.00
2024-03-23T02:16:23.469Z,906.00
2024-03-23T02:17:23.584Z,893.00
2024-03-23T02:18:23.632Z,895.00
2024-03-23T02:19:23.687Z,891.00
2024-03-23T02:20:23.765Z,893.00
2024-03-23T02:21:23.855Z,895.00
2024-03-23T02:22:23.934Z,888.00
2024-03-23T02:23:23.960Z,875.00
2024-03-23T02:24:24.030Z,886.00
2024-03-23T02:25:24.109Z,881.00
2024-03-23T02:26:24.173Z,884.00
2024-03-23T02:27:24.257Z,881.00
2024-03-23T02:28:24.315Z,880.00
2024-03-23T02:29:24.405Z,882.00
2024-03-23T02:30:24.482Z,882.00
2024-03-23T02:31:24.559Z,869.00
2024-03-23T02:32:24.747Z,876.00
2024-03-23T02:33:24.695Z,868.00
2024-03-23T02:34:24.757Z,874.00
2024-03-23T02:35:24.867Z,865.00
2024-03-23T02:36:24.926Z,871.00
2024-03-23T02:37:24.975Z,856.00
2024-03-23T02:38:25.062Z,852.00
2024-03-23T02:39:25.181Z,860.00
2024-03-23T02:40:25.234Z,859.00
2024-03-23T02:41:25.261Z,849.00
2024-03-23T02:42:25.382Z,854.00
2024-03-23T02:43:25.373Z,845.00
2024-03-23T02:44:25.443Z,846.00
2024-03-23T02:45:25.516Z,856.00
2024-03-23T02:46:25.597Z,849.00
2024-03-23T02:47:25.722Z,853.00
2024-03-23T02:48:25.800Z,838.00
2024-03-23T02:49:25.808Z,849.00
2024-03-23T02:50:25.876Z,845.00
2024-03-23T02:51:25.956Z,834.00
2024-03-23T02:52:26.013Z,848.00
2024-03-23T02:53:26.083Z,842.00
2024-03-23T02:54:26.194Z,844.00
2024-03-23T02:55:26.234Z,840.00
2024-03-23T02:56:26.307Z,845.00
2024-03-23T02:57:26.422Z,836.00
2024-03-23T02:58:26.459Z,845.00
2024-03-23T02:59:26.533Z,837.00
2024-03-23T03:00:26.635Z,834.00
2024-03-23T03:01:26.670Z,841.00
2024-03-23T03:02:26.746Z,830.00
2024-03-23T03:03:26.874Z,845.00
2024-03-23T03:04:26.908Z,843.00
2024-03-23T03:05:26.960Z,830.00
2024-03-23T03:06:27.051Z,827.00
2024-03-23T03:07:27.109Z,830.00
2024-03-23T03:08:27.187Z,836.00
2024-03-23T03:09:27.298Z,840.00
2024-03-23T03:10:27.317Z,834.00
2024-03-23T03:11:27.390Z,839.00
2024-03-23T03:12:27.478Z,834.00
2024-03-23T03:13:27.531Z,832.00
2024-03-23T03:14:27.624Z,830.00
2024-03-23T03:15:27.674Z,834.00
2024-03-23T03:16:27.734Z,819.00
2024-03-23T03:17:27.854Z,834.00
2024-03-23T03:18:27.915Z,829.00
2024-03-23T03:19:27.975Z,831.00
2024-03-23T03:20:28.040Z,830.00
2024-03-23T03:21:28.129Z,832.00
2024-03-23T03:22:28.172Z,831.00
2024-03-23T03:23:28.234Z,834.00
2024-03-23T03:24:28.342Z,824.00
2024-03-23T03:25:28.369Z,827.00
2024-03-23T03:26:28.448Z,833.00
2024-03-23T03:27:28.537Z,830.00
2024-03-23T03:28:28.589Z,832.00
2024-03-23T03:29:28.646Z,817.00
2024-03-23T03:30:28.790Z,825.00
2024-03-23T03:31:28.797Z,819.00
2024-03-23T03:32:28.889Z,823.00
2024-03-23T03:33:28.957Z,820.00
2024-03-23T03:34:29.012Z,821.00
2024-03-23T03:35:29.108Z,823.00
2024-03-23T03:36:29.243Z,820.00
2024-03-23T03:37:29.225Z,820.00
2024-03-23T03:38:29.296Z,816.00
2024-03-23T03:39:29.362Z,812.00
2024-03-23T03:40:29.435Z,816.00
2024-03-23T03:41:29.511Z,816.00
2024-03-23T03:42:29.601Z,811.00
2024-03-23T03:43:29.664Z,813.00
2024-03-23T03:44:29.731Z,817.00
2024-03-23T03:45:29.982Z,801.00
2024-03-23T03:46:29.883Z,807.00
2024-03-23T03:47:29.946Z,811.00
2024-03-23T03:48:30.039Z,801.00
2024-03-23T03:49:30.083Z,807.00
2024-03-23T03:50:30.186Z,807.00
2024-03-23T03:51:30.266Z,802.00
2024-03-23T03:52:30.307Z,802.00
2024-03-23T03:53:30.378Z,806.00
2024-03-23T03:54:30.502Z,809.00
2024-03-23T03:55:30.524Z,807.00
2024-03-23T03:56:30.593Z,797.00
2024-03-23T03:57:30.668Z,794.00
2024-03-23T03:58:30.723Z,806.00
2024-03-23T03:59:30.796Z,804.00
2024-03-23T04:00:30.885Z,803.00
2024-03-23T04:01:30.936Z,801.00
2024-03-23T04:02:30.999Z,801.00
2024-03-23T04:03:31.069Z,791.00
2024-03-23T04:04:31.150Z,799.00
2024-03-23T04:05:31.214Z,794.00
2024-03-23T04:06:31.285Z,788.00
2024-03-23T04:07:31.363Z,788.00
2024-03-23T04:08:31.423Z,795.00
2024-03-23T04:09:31.547Z,788.00
2024-03-23T04:10:31.568Z,781.00
2024-03-23T04:11:31.646Z,789.00
2024-03-23T04:12:31.744Z,787.00
2024-03-23T04:13:31.783Z,789.00
2024-03-23T04:14:31.861Z,789.00
2024-03-23T04:15:31.934Z,782.00
2024-03-23T04:16:32.003Z,798.00
2024-03-23T04:17:32.086Z,793.00
2024-03-23T04:18:32.142Z,787.00
2024-03-23T04:19:32.233Z,782.00
2024-03-23T04:20:32.294Z,789.00
2024-03-23T04:21:32.373Z,784.00
2024-03-23T04:22:32.430Z,788.00
2024-03-23T04:23:32.516Z,785.00
2024-03-23T04:24:32.589Z,784.00
2024-03-23T04:25:32.626Z,787.00
2024-03-23T04:26:32.697Z,783.00
2024-03-23T04:27:32.758Z,783.00
2024-03-23T04:28:32.826Z,780.00
2024-03-23T04:29:32.898Z,777.00
2024-03-23T04:30:32.979Z,774.00
2024-03-23T04:31:33.043Z,787.00
2024-03-23T04:32:33.114Z,785.00
2024-03-23T04:33:33.177Z,776.00
2024-03-23T04:34:33.252Z,779.00
2024-03-23T04:35:33.288Z,776.00
2024-03-23T04:36:33.364Z,778.00
2024-03-23T04:37:33.434Z,780.00
2024-03-23T04:38:33.509Z,776.00
2024-03-23T04:39:33.601Z,775.00
2024-03-23T04:40:33.649Z,773.00
2024-03-23T04:41:33.708Z,772.00
2024-03-23T04:42:33.798Z,765.00
2024-03-23T04:43:33.862Z,762.00
2024-03-23T04:44:33.933Z,766.00
2024-03-23T04:45:34.023Z,765.00
2024-03-23T04:46:34.079Z,767.00
2024-03-23T04:47:41.313Z,600.00
2024-03-23T04:48:42.299Z,600.00
2024-03-23T04:49:42.300Z,600.00
2024-03-23T04:50:42.311Z,600.00
2024-03-23T04:51:42.302Z,600.00
2024-03-23T04:52:42.303Z,600.00
2024-03-23T04:53:42.314Z,600.00
2024-03-23T04:54:42.328Z,603.00
2024-03-23T04:55:42.318Z,604.00
2024-03-23T04:56:42.305Z,601.00
2024-03-23T04:57:42.313Z,604.00
2024-03-23T04:58:42.310Z,605.00
2024-03-23T04:59:42.322Z,602.00
2024-03-23T05:00:42.424Z,606.00
2024-03-23T05:01:43.400Z,604.00
2024-03-23T05:02:42.540Z,602.00
2024-03-23T05:03:42.636Z,605.00
2024-03-23T05:04:42.689Z,602.00
2024-03-23T05:05:42.744Z,602.00
2024-03-23T05:06:42.819Z,602.00
2024-03-23T05:07:42.888Z,604.00
2024-03-23T05:08:42.941Z,602.00
2024-03-23T05:09:43.017Z,604.00
2024-03-23T05:10:43.111Z,601.00
2024-03-23T05:11:43.137Z,601.00
2024-03-23T05:12:43.206Z,606.00
2024-03-23T05:13:43.265Z,602.00
2024-03-23T05:14:43.318Z,602.00
2024-03-23T05:15:43.383Z,601.00
2024-03-23T05:16:43.441Z,604.00
2024-03-23T05:17:43.504Z,604.00
2024-03-23T05:18:43.562Z,607.00
2024-03-23T05:19:43.614Z,603.00
2024-03-23T05:20:43.675Z,606.00
2024-03-23T05:21:43.732Z,609.00
2024-03-23T05:22:43.809Z,601.00
2024-03-23T05:23:43.848Z,600.00
2024-03-23T05:24:43.883Z,602.00
2024-03-23T05:25:43.956Z,603.00
2024-03-23T05:26:44.033Z,600.00
2024-03-23T05:27:44.102Z,604.00
2024-03-23T05:28:44.154Z,603.00
2024-03-23T05:29:44.207Z,608.00
2024-03-23T05:30:44.242Z,604.00
2024-03-23T05:31:44.303Z,608.00
2024-03-23T05:32:44.365Z,605.00
2024-03-23T05:33:44.409Z,603.00
2024-03-23T05:34:44.456Z,607.00
2024-03-23T05:35:44.518Z,600.00
2024-03-23T05:36:44.576Z,607.00
2024-03-23T05:37:44.638Z,603.00
2024-03-23T05:38:44.717Z,604.00
2024-03-23T05:39:44.748Z,602.00
2024-03-23T05:40:44.802Z,607.00
2024-03-23T05:41:44.860Z,603.00
2024-03-23T05:42:44.943Z,608.00
2024-03-23T05:43:45.001Z,604.00
2024-03-23T05:44:45.080Z,605.00
2024-03-23T05:45:45.135Z,606.00
2024-03-23T05:46:45.196Z,604.00
2024-03-23T05:47:45.265Z,605.00
2024-03-23T05:48:45.345Z,607.00
2024-03-23T05:49:45.429Z,603.00
2024-03-23T05:50:45.479Z,607.00
2024-03-23T05:51:45.560Z,604.00
2024-03-23T05:52:45.640Z,603.00
2024-03-23T05:53:45.725Z,603.00
2024-03-23T05:54:45.750Z,607.00
2024-03-23T05:55:45.853Z,604.00
2024-03-23T05:56:45.896Z,601.00
2024-03-23T05:57:45.965Z,605.00
2024-03-23T05:58:46.043Z,603.00
2024-03-23T05:59:46.066Z,605.00
2024-03-23T06:00:46.123Z,605.00
2024-03-23T06:01:46.186Z,608.00
2024-03-23T06:02:46.253Z,604.00
2024-03-23T06:03:46.309Z,608.00
2024-03-23T06:04:46.378Z,606.00
2024-03-23T06:05:46.441Z,606.00
2024-03-23T06:06:46.514Z,600.00
2024-03-23T06:07:46.568Z,604.00
2024-03-23T06:08:46.642Z,604.00
2024-03-23T06:09:46.716Z,607.00
2024-03-23T06:10:46.788Z,608.00
2024-03-23T06:11:46.855Z,606.00
2024-03-23T06:12:46.931Z,603.00
2024-03-23T06:13:47.018Z,610.00
2024-03-23T06:14:47.094Z,604.00
2024-03-23T06:15:47.166Z,604.00
2024-03-23T06:16:47.219Z,606.00
2024-03-23T06:17:47.288Z,605.00
2024-03-23T06:18:47.362Z,602.00
2024-03-23T06:19:47.437Z,604.00
2024-03-23T06:20:47.499Z,606.00
2024-03-23T06:21:47.574Z,603.00
2024-03-23T06:22:47.637Z,601.00
2024-03-23T06:23:47.709Z,605.00
2024-03-23T06:24:47.777Z,605.00
2024-03-23T06:25:47.858Z,608.00
2024-03-23T06:26:47.918Z,600.00
2024-03-23T06:27:48.004Z,603.00
2024-03-23T06:28:48.082Z,601.00
2024-03-23T06:29:48.148Z,604.00
2024-03-23T06:30:48.223Z,607.00
2024-03-23T06:31:48.275Z,605.00
2024-03-23T06:32:48.345Z,603.00
2024-03-23T06:33:48.432Z,604.00
2024-03-23T06:34:48.492Z,603.00
2024-03-23T06:35:48.558Z,605.00
2024-03-23T06:36:48.631Z,602.00
2024-03-23T06:37:47.693Z,607.00
2024-03-23T06:38:48.765Z,604.00
2024-03-23T06:39:48.824Z,601.00
2024-03-23T06:40:48.888Z,603.00
2024-03-23T06:41:48.954Z,601.00
2024-03-23T06:42:49.028Z,600.00
2024-03-23T06:43:52.407Z,602.00
2024-03-23T06:44:49.114Z,602.00
2024-03-23T06:45:49.114Z,602.00
2024-03-23T06:46:49.198Z,604.00
2024-03-23T06:47:49.186Z,605.00
2024-03-23T06:48:49.246Z,604.00
2024-03-23T06:49:49.303Z,604.00
2024-03-23T06:50:49.381Z,602.00
2024-03-23T06:51:49.449Z,601.00
2024-03-23T06:52:49.517Z,604.00
2024-03-23T06:53:49.577Z,603.00
2024-03-23T06:54:49.661Z,600.00
2024-03-23T06:55:49.706Z,603.00
2024-03-23T06:56:49.777Z,604.00
2024-03-23T06:57:49.836Z,604.00
2024-03-23T06:58:49.914Z,604.00
2024-03-23T06:59:49.966Z,606.00
2024-03-23T07:00:50.028Z,604.00
2024-03-23T07:01:50.099Z,605.00
2024-03-23T07:02:50.183Z,604.00
2024-03-23T07:03:50.231Z,601.00
2024-03-23T07:04:50.311Z,607.00
2024-03-23T07:05:50.374Z,602.00
2024-03-23T07:06:50.448Z,603.00
2024-03-23T07:07:50.524Z,600.00
2024-03-23T07:08:50.578Z,601.00
2024-03-23T07:09:50.651Z,604.00
2024-03-23T07:10:50.724Z,601.00
2024-03-23T07:11:50.777Z,604.00
2024-03-23T07:12:50.857Z,603.00
2024-03-23T07:13:50.937Z,603.00
2024-03-23T07:14:51.000Z,603.00
2024-03-23T07:15:51.066Z,605.00
2024-03-23T07:16:51.136Z,604.00
2024-03-23T07:17:51.217Z,606.00
2024-03-23T07:18:51.314Z,601.00
2024-03-23T07:19:51.378Z,600.00
2024-03-23T07:20:51.433Z,600.00
2024-03-23T07:21:51.502Z,604.00
2024-03-23T07:22:51.573Z,600.00
2024-03-23T07:23:51.641Z,602.00
2024-03-23T07:24:51.698Z,606.00
2024-03-23T07:25:51.777Z,600.00
2024-03-23T07:26:51.855Z,604.00
2024-03-23T07:27:51.917Z,604.00
2024-03-23T07:28:51.992Z,603.00
2024-03-23T07:29:52.062Z,602.00
2024-03-23T07:30:52.123Z,603.00
2024-03-23T07:31:52.202Z,600.00
2024-03-23T07:32:52.259Z,602.00
2024-03-23T07:33:52.326Z,602.00
2024-03-23T07:34:52.420Z,607.00
2024-03-23T07:35:52.470Z,600.00
2024-03-23T07:36:52.551Z,607.00
2024-03-23T07:37:52.597Z,600.00
2024-03-23T07:39:03.456Z,601.00
2024-03-23T07:39:52.677Z,601.00
2024-03-23T07:40:52.680Z,602.00
2024-03-23T07:41:52.701Z,603.00
2024-03-23T07:42:52.673Z,603.00
2024-03-23T07:43:52.684Z,601.00
2024-03-23T07:44:52.691Z,606.00
2024-03-23T07:45:52.673Z,601.00
2024-03-23T07:46:52.675Z,601.00
2024-03-23T07:47:52.676Z,602.00
2024-03-23T07:48:52.675Z,600.00
2024-03-23T07:49:52.681Z,602.00
2024-03-23T07:50:52.691Z,605.00
2024-03-23T07:51:52.681Z,600.00
2024-03-23T07:52:52.672Z,604.00
2024-03-23T07:53:52.669Z,601.00
2024-03-23T07:54:52.675Z,601.00
2024-03-23T07:55:52.682Z,600.00
2024-03-23T07:56:52.672Z,604.00
2024-03-23T07:57:52.673Z,604.00
2024-03-23T07:58:53.482Z,603.00
2024-03-23T07:59:52.684Z,605.00
2024-03-23T08:00:52.680Z,604.00
2024-03-23T08:01:52.689Z,604.00
2024-03-23T08:02:52.758Z,603.00
2024-03-23T08:03:52.828Z,603.00
2024-03-23T08:04:52.902Z,601.00
2024-03-23T08:05:52.960Z,605.00
2024-03-23T08:06:54.682Z,606.00
2024-03-23T08:07:53.027Z,600.00
2024-03-23T08:08:53.042Z,609.00
2024-03-23T08:09:53.029Z,604.00
2024-03-23T08:10:53.038Z,604.00
2024-03-23T08:11:53.028Z,602.00
2024-03-23T08:12:53.034Z,606.00
2024-03-23T08:13:53.035Z,600.00
2024-03-23T08:14:53.032Z,600.00
2024-03-23T08:15:53.029Z,603.00
2024-03-23T08:16:53.038Z,602.00
2024-03-23T08:17:53.038Z,607.00
2024-03-23T08:18:53.058Z,604.00
2024-03-23T08:19:53.040Z,604.00
2024-03-23T08:20:53.039Z,605.00
2024-03-23T08:21:53.046Z,602.00
2024-03-23T08:22:53.053Z,603.00
2024-03-23T08:23:53.032Z,603.00
2024-03-23T08:24:53.040Z,605.00
2024-03-23T08:25:53.039Z,602.00
2024-03-23T08:26:54.454Z,605.00
2024-03-23T08:27:53.051Z,605.00
2024-03-23T08:28:53.045Z,600.00
2024-03-23T08:29:53.052Z,602.00
2024-03-23T08:30:53.055Z,603.00
2024-03-23T08:31:53.044Z,607.00
2024-03-23T08:32:53.049Z,603.00
2024-03-23T08:33:53.071Z,602.00
2024-03-23T08:34:53.047Z,601.00
2024-03-23T08:35:53.042Z,600.00
2024-03-23T08:36:53.039Z,604.00
2024-03-23T08:37:53.052Z,604.00
2024-03-23T08:38:53.064Z,602.00
2024-03-23T08:39:53.047Z,602.00
2024-03-23T08:40:53.061Z,605.00
2024-03-23T08:41:53.053Z,606.00
2024-03-23T08:42:53.043Z,607.00
2024-03-23T08:43:53.053Z,604.00
2024-03-23T08:44:53.053Z,604.00
2024-03-23T08:45:53.051Z,602.00
2024-03-23T08:46:53.041Z,603.00
2024-03-23T08:47:53.039Z,608.00
2024-03-23T08:48:53.044Z,603.00
2024-03-23T08:49:53.316Z,608.00
2024-03-23T08:50:53.064Z,606.00
2024-03-23T08:51:53.050Z,604.00
2024-03-23T08:52:53.113Z,602.00
2024-03-23T08:53:53.157Z,603.00
2024-03-23T08:54:53.369Z,601.00
2024-03-23T08:55:53.379Z,603.00
2024-03-23T08:56:53.359Z,603.00
2024-03-23T08:57:53.420Z,601.00
2024-03-23T08:58:53.473Z,605.00
2024-03-23T08:59:53.543Z,603.00
2024-03-23T09:00:53.618Z,605.00
2024-03-23T09:01:53.678Z,602.00
2024-03-23T09:02:53.742Z,600.00
2024-03-23T09:03:53.793Z,604.00
2024-03-23T09:04:53.855Z,603.00
2024-03-23T09:05:53.934Z,601.00
2024-03-23T09:06:53.986Z,602.00
2024-03-23T09:07:54.045Z,602.00
2024-03-23T09:08:54.102Z,603.00
2024-03-23T09:09:54.181Z,603.00
2024-03-23T09:10:54.252Z,604.00
2024-03-23T09:11:54.301Z,603.00
2024-03-23T09:12:54.368Z,603.00
2024-03-23T09:13:54.422Z,605.00
2024-03-23T09:14:54.487Z,602.00
2024-03-23T09:15:54.554Z,602.00
2024-03-23T09:16:54.611Z,602.00
2024-03-23T09:17:54.679Z,600.00
2024-03-23T09:18:54.754Z,605.00
2024-03-23T09:19:54.807Z,602.00
2024-03-23T09:20:54.863Z,601.00
2024-03-23T09:21:54.928Z,600.00
2024-03-23T09:22:54.996Z,603.00
2024-03-23T09:23:55.060Z,606.00
2024-03-23T09:24:55.131Z,603.00
2024-03-23T09:25:55.174Z,606.00
2024-03-23T09:26:55.254Z,603.00
2024-03-23T09:27:55.303Z,601.00
2024-03-23T09:28:55.364Z,606.00
2024-03-23T09:29:55.420Z,600.00
2024-03-23T09:30:55.506Z,603.00
2024-03-23T09:31:55.544Z,600.00
2024-03-23T09:32:55.589Z,604.00
2024-03-23T09:33:55.654Z,603.00
2024-03-23T09:34:55.721Z,606.00
2024-03-23T09:35:55.782Z,604.00
2024-03-23T09:36:55.833Z,602.00
2024-03-23T09:37:55.905Z,606.00
2024-03-23T09:38:55.970Z,603.00
2024-03-23T09:39:56.063Z,606.00
2024-03-23T09:40:56.083Z,608.00
2024-03-23T09:41:56.169Z,607.00
2024-03-23T09:42:56.235Z,604.00
2024-03-23T09:43:56.290Z,605.00
2024-03-23T09:44:56.393Z,610.00
2024-03-23T09:45:56.438Z,605.00
2024-03-23T09:46:56.466Z,607.00
2024-03-23T09:47:56.524Z,604.00
2024-03-23T09:48:56.577Z,606.00
2024-03-23T09:49:56.650Z,603.00
2024-03-23T09:50:56.693Z,606.00
2024-03-23T09:51:56.758Z,608.00
2024-03-23T09:52:56.830Z,605.00
2024-03-23T09:53:57.526Z,609.00
2024-03-23T09:54:56.955Z,611.00
2024-03-23T09:55:57.020Z,608.00
2024-03-23T09:56:57.083Z,610.00
2024-03-23T09:57:57.151Z,607.00
2024-03-23T09:58:57.232Z,608.00
2024-03-23T09:59:57.278Z,607.00
2024-03-23T10:00:57.337Z,607.00
2024-03-23T10:01:57.410Z,610.00
2024-03-23T10:02:57.469Z,608.00
2024-03-23T10:03:57.527Z,608.00
2024-03-23T10:04:57.603Z,610.00
2024-03-23T10:05:57.659Z,612.00
2024-03-23T10:06:57.722Z,607.00
2024-03-23T10:07:57.789Z,605.00
2024-03-23T10:08:57.843Z,606.00
2024-03-23T10:09:57.910Z,604.00
2024-03-23T10:10:57.962Z,603.00
2024-03-23T10:11:58.013Z,603.00
2024-03-23T10:12:58.074Z,605.00
2024-03-23T10:13:58.977Z,601.00
2024-03-23T10:14:58.268Z,604.00
2024-03-23T10:15:58.136Z,606.00
2024-03-23T10:16:58.130Z,606.00
2024-03-23T10:17:58.147Z,605.00
2024-03-23T10:18:58.131Z,603.00
2024-03-23T10:19:58.142Z,606.00
2024-03-23T10:20:58.138Z,604.00
2024-03-23T10:21:58.158Z,602.00
2024-03-23T10:22:58.142Z,600.00
2024-03-23T10:23:58.141Z,604.00
2024-03-23T10:24:58.141Z,602.00
2024-03-23T10:25:58.148Z,601.00
2024-03-23T10:26:58.161Z,604.00
2024-03-23T10:27:58.163Z,604.00
2024-03-23T10:28:58.151Z,607.00
2024-03-23T10:29:58.162Z,609.00
2024-03-23T10:30:58.167Z,608.00
2024-03-23T10:31:58.147Z,606.00
2024-03-23T10:32:58.161Z,610.00
2024-03-23T10:33:58.149Z,609.00
2024-03-23T10:34:58.804Z,612.00
2024-03-23T10:35:58.153Z,613.00
2024-03-23T10:36:58.184Z,612.00
2024-03-23T10:37:58.255Z,610.00
2024-03-23T10:38:58.327Z,611.00
2024-03-23T10:39:58.376Z,612.00
2024-03-23T10:40:58.446Z,613.00
2024-03-23T10:41:58.520Z,612.00
2024-03-23T10:42:58.586Z,614.00
2024-03-23T10:43:58.660Z,610.00
2024-03-23T10:44:58.722Z,614.00
2024-03-23T10:45:58.786Z,611.00
2024-03-23T10:46:58.878Z,611.00
2024-03-23T10:47:58.955Z,617.00
2024-03-23T10:48:58.988Z,614.00
2024-03-23T10:49:59.063Z,615.00
2024-03-23T10:50:59.126Z,613.00
2024-03-23T10:51:59.195Z,615.00
2024-03-23T10:52:59.265Z,615.00
2024-03-23T10:53:59.321Z,614.00
2024-03-23T10:54:59.403Z,611.00
2024-03-23T10:55:59.468Z,615.00
2024-03-23T10:56:59.529Z,614.00
2024-03-23T10:57:59.599Z,614.00
2024-03-23T10:58:59.665Z,615.00
2024-03-23T10:59:59.736Z,618.00
2024-03-23T11:00:59.804Z,617.00
2024-03-23T11:01:59.875Z,614.00
2024-03-23T11:02:59.962Z,615.00
2024-03-23T11:04:00.117Z,617.00
2024-03-23T11:05:00.135Z,614.00
2024-03-23T11:06:00.241Z,611.00
2024-03-23T11:07:00.276Z,612.00
2024-03-23T11:08:00.299Z,616.00
2024-03-23T11:09:00.408Z,615.00
2024-03-23T11:10:00.536Z,616.00
2024-03-23T11:11:00.490Z,613.00
2024-03-23T11:12:00.564Z,615.00
2024-03-23T11:13:00.638Z,608.00
2024-03-23T11:14:00.699Z,614.00
2024-03-23T11:15:00.758Z,612.00
2024-03-23T11:16:00.824Z,609.00
2024-03-23T11:17:00.898Z,608.00
2024-03-23T11:18:00.962Z,607.00
2024-03-23T11:19:01.084Z,608.00
2024-03-23T11:20:01.097Z,606.00
2024-03-23T11:21:01.197Z,604.00
2024-03-23T11:22:01.252Z,608.00
2024-03-23T11:23:01.289Z,606.00
2024-03-23T11:24:01.354Z,605.00
2024-03-23T11:25:01.417Z,606.00
2024-03-23T11:26:01.478Z,602.00
2024-03-23T11:27:01.561Z,604.00
2024-03-23T11:28:01.619Z,602.00
2024-03-23T11:29:01.694Z,601.00
2024-03-23T11:30:01.756Z,602.00
2024-03-23T11:31:01.801Z,602.00
2024-03-23T11:32:01.877Z,608.00
2024-03-23T11:33:01.988Z,604.00
2024-03-23T11:34:02.011Z,600.00
2024-03-23T11:35:03.089Z,603.00
2024-03-23T11:36:02.165Z,607.00
2024-03-23T11:37:02.221Z,605.00
2024-03-23T11:38:02.280Z,607.00
2024-03-23T11:39:02.350Z,603.00
2024-03-23T11:40:02.399Z,601.00
2024-03-23T11:41:02.476Z,607.00
2024-03-23T11:42:02.516Z,603.00
2024-03-23T11:43:02.567Z,608.00
2024-03-23T11:44:02.606Z,604.00
2024-03-23T11:45:02.647Z,605.00
2024-03-23T11:46:02.691Z,605.00
2024-03-23T11:47:02.736Z,604.00
2024-03-23T11:48:02.826Z,604.00
2024-03-23T11:49:02.800Z,605.00
2024-03-23T11:50:02.880Z,600.00
2024-03-23T11:51:02.932Z,605.00
2024-03-23T11:52:02.968Z,608.00
2024-03-23T11:53:03.021Z,603.00
2024-03-23T11:54:03.052Z,606.00
2024-03-23T11:55:03.092Z,607.00
2024-03-23T11:56:03.134Z,606.00
2024-03-23T11:57:03.163Z,610.00
2024-03-23T11:58:03.209Z,608.00
2024-03-23T11:59:03.246Z,611.00
2024-03-23T12:00:03.303Z,610.00
2024-03-23T12:01:03.319Z,613.00
2024-03-23T12:02:03.374Z,616.00
2024-03-23T12:03:03.410Z,615.00
2024-03-23T12:04:03.479Z,615.00
2024-03-23T12:05:03.510Z,612.00
2024-03-23T12:06:03.547Z,614.00
2024-03-23T12:07:03.608Z,617.00
2024-03-23T12:08:03.645Z,617.00
2024-03-23T12:09:03.699Z,610.00
2024-03-23T12:10:03.735Z,613.00
2024-03-23T12:11:03.757Z,618.00
2024-03-23T12:12:03.808Z,618.00
2024-03-23T12:13:03.858Z,617.00
2024-03-23T12:14:04.574Z,615.00
2024-03-23T12:15:03.924Z,617.00
2024-03-23T12:16:03.948Z,619.00
2024-03-23T12:17:03.983Z,622.00
2024-03-23T12:18:04.029Z,618.00
2024-03-23T12:19:04.062Z,621.00
2024-03-23T12:20:04.120Z,622.00
2024-03-23T12:21:04.148Z,623.00
2024-03-23T12:22:04.200Z,623.00
2024-03-23T12:23:04.267Z,620.00
2024-03-23T12:24:04.271Z,620.00
2024-03-23T12:25:04.331Z,620.00
2024-03-23T12:26:04.381Z,622.00
2024-03-23T12:27:04.452Z,621.00
2024-03-23T12:28:04.499Z,623.00
2024-03-23T12:29:04.548Z,624.00
2024-03-23T12:30:04.584Z,624.00
2024-03-23T12:31:04.638Z,621.00
2024-03-23T12:32:05.966Z,625.00
2024-03-23T12:33:04.742Z,623.00
2024-03-23T12:34:04.809Z,626.00
2024-03-23T12:35:04.902Z,622.00
2024-03-23T12:36:04.919Z,625.00
2024-03-23T12:37:05.035Z,624.00
2024-03-23T12:38:05.044Z,623.00
2024-03-23T12:39:05.109Z,630.00
2024-03-23T12:40:05.159Z,625.00
2024-03-23T12:41:05.207Z,624.00
2024-03-23T12:42:05.246Z,627.00
2024-03-23T12:43:05.282Z,627.00
2024-03-23T12:44:05.327Z,630.00
2024-03-23T12:45:05.371Z,628.00
2024-03-23T12:46:05.422Z,627.00
2024-03-23T12:47:05.480Z,626.00
2024-03-23T12:48:05.524Z,627.00
2024-03-23T12:49:05.570Z,626.00
2024-03-23T12:50:05.636Z,624.00
2024-03-23T12:51:05.670Z,624.00
2024-03-23T12:52:05.721Z,627.00
2024-03-23T12:53:05.766Z,625.00
2024-03-23T12:54:05.821Z,620.00
2024-03-23T12:55:05.891Z,623.00
2024-03-23T12:56:05.949Z,621.00
2024-03-23T12:57:05.995Z,626.00
2024-03-23T12:58:06.012Z,623.00
2024-03-23T12:59:06.065Z,623.00
2024-03-23T13:00:06.121Z,625.00
2024-03-23T13:01:06.182Z,620.00
2024-03-23T13:02:06.210Z,621.00
2024-03-23T13:03:06.266Z,621.00
2024-03-23T13:04:06.329Z,618.00
2024-03-23T13:05:06.392Z,619.00
2024-03-23T13:06:06.459Z,620.00
2024-03-23T13:07:06.527Z,621.00
2024-03-23T13:08:06.584Z,621.00
2024-03-23T13:09:06.640Z,626.00
2024-03-23T13:10:06.750Z,623.00
2024-03-23T13:11:06.780Z,621.00
2024-03-23T13:12:06.822Z,622.00
2024-03-23T13:13:06.865Z,619.00
2024-03-23T13:14:06.906Z,626.00